sensor_id;sensor_type;location;lat;lon;timestamp;temperature;humidity
45849;DHT22;31567;54.600;9.842;2023-07-20T00:00:53;15.90;99.30
45849;DHT22;31567;54.600;9.842;2023-07-20T00:04:33;15.80;99.10
45849;DHT22;31567;54.600;9.842;2023-07-20T00:08:12;15.80;99.20
45849;DHT22;31567;54.600;9.842;2023-07-20T00:11:52;15.70;99.20
45849;DHT22;31567;54.600;9.842;2023-07-20T00:15:32;15.70;99.20
45849;DHT22;31567;54.600;9.842;2023-07-20T00:19:15;15.60;99.30
45849;DHT22;31567;54.600;9.842;2023-07-20T00:22:55;15.60;99.30
45849;DHT22;31567;54.600;9.842;2023-07-20T00:26:37;15.50;99.30
45849;DHT22;31567;54.600;9.842;2023-07-20T00:30:17;15.50;99.40
45849;DHT22;31567;54.600;9.842;2023-07-20T00:33:57;15.40;99.40
45849;DHT22;31567;54.600;9.842;2023-07-20T00:37:38;15.40;99.40
45849;DHT22;31567;54.600;9.842;2023-07-20T00:41:18;15.30;99.40
45849;DHT22;31567;54.600;9.842;2023-07-20T00:44:57;15.20;99.70
45849;DHT22;31567;54.600;9.842;2023-07-20T00:48:37;15.10;99.40
45849;DHT22;31567;54.600;9.842;2023-07-20T00:52:17;15.10;99.50
45849;DHT22;31567;54.600;9.842;2023-07-20T00:55:58;15.00;99.50
45849;DHT22;31567;54.600;9.842;2023-07-20T00:59:37;15.00;99.60
45849;DHT22;31567;54.600;9.842;2023-07-20T01:03:17;14.90;99.60
45849;DHT22;31567;54.600;9.842;2023-07-20T01:11:06;14.90;99.70
45849;DHT22;31567;54.600;9.842;2023-07-20T01:14:49;14.80;99.60
45849;DHT22;31567;54.600;9.842;2023-07-20T01:18:28;14.70;99.60
45849;DHT22;31567;54.600;9.842;2023-07-20T01:34:40;14.50;99.50
45849;DHT22;31567;54.600;9.842;2023-07-20T01:38:21;14.40;99.40
45849;DHT22;31567;54.600;9.842;2023-07-20T01:42:01;14.40;99.30
45849;DHT22;31567;54.600;9.842;2023-07-20T01:45:40;14.30;99.30
45849;DHT22;31567;54.600;9.842;2023-07-20T01:49:20;14.30;99.40
45849;DHT22;31567;54.600;9.842;2023-07-20T01:52:59;14.20;99.40
45849;DHT22;31567;54.600;9.842;2023-07-20T01:56:39;14.20;99.60
45849;DHT22;31567;54.600;9.842;2023-07-20T02:00:18;14.10;99.30
45849;DHT22;31567;54.600;9.842;2023-07-20T02:04:00;14.10;99.30
45849;DHT22;31567;54.600;9.842;2023-07-20T02:07:40;14.00;99.20
45849;DHT22;31567;54.600;9.842;2023-07-20T02:11:19;14.00;99.30
45849;DHT22;31567;54.600;9.842;2023-07-20T02:14:59;13.90;99.40
45849;DHT22;31567;54.600;9.842;2023-07-20T02:18:39;13.90;99.50
45849;DHT22;31567;54.600;9.842;2023-07-20T02:22:18;14.00;99.60
45849;DHT22;31567;54.600;9.842;2023-07-20T02:25:58;13.90;99.50
45849;DHT22;31567;54.600;9.842;2023-07-20T02:29:37;13.90;99.50
45849;DHT22;31567;54.600;9.842;2023-07-20T02:33:17;13.80;99.50
45849;DHT22;31567;54.600;9.842;2023-07-20T02:36:57;13.80;99.60
45849;DHT22;31567;54.600;9.842;2023-07-20T02:40:37;13.90;99.70
45849;DHT22;31567;54.600;9.842;2023-07-20T02:44:17;13.80;99.70
45849;DHT22;31567;54.600;9.842;2023-07-20T02:47:56;13.90;99.80
45849;DHT22;31567;54.600;9.842;2023-07-20T02:51:36;13.90;99.90
45849;DHT22;31567;54.600;9.842;2023-07-20T02:55:16;13.90;99.90
45849;DHT22;31567;54.600;9.842;2023-07-20T02:58:55;13.90;99.70
45849;DHT22;31567;54.600;9.842;2023-07-20T03:02:35;13.90;99.60
45849;DHT22;31567;54.600;9.842;2023-07-20T03:06:15;13.80;99.50
45849;DHT22;31567;54.600;9.842;2023-07-20T03:09:55;13.70;99.50
45849;DHT22;31567;54.600;9.842;2023-07-20T03:13:34;13.80;99.70
45849;DHT22;31567;54.600;9.842;2023-07-20T03:17:14;13.80;99.80
45849;DHT22;31567;54.600;9.842;2023-07-20T03:20:53;13.70;99.80
45849;DHT22;31567;54.600;9.842;2023-07-20T03:24:33;13.70;99.90
45849;DHT22;31567;54.600;9.842;2023-07-20T03:28:12;13.70;99.90
45849;DHT22;31567;54.600;9.842;2023-07-20T03:31:52;13.70;99.90
45849;DHT22;31567;54.600;9.842;2023-07-20T03:35:31;13.80;99.90
45849;DHT22;31567;54.600;9.842;2023-07-20T03:39:11;13.80;99.90
45849;DHT22;31567;54.600;9.842;2023-07-20T03:42:50;13.70;99.90
45849;DHT22;31567;54.600;9.842;2023-07-20T03:46:30;13.80;99.90
45849;DHT22;31567;54.600;9.842;2023-07-20T03:50:10;13.70;99.90
45849;DHT22;31567;54.600;9.842;2023-07-20T03:53:50;13.80;99.90
45849;DHT22;31567;54.600;9.842;2023-07-20T03:57:29;13.80;99.90
45849;DHT22;31567;54.600;9.842;2023-07-20T04:01:11;13.70;99.90
45849;DHT22;31567;54.600;9.842;2023-07-20T04:04:52;13.70;99.90
45849;DHT22;31567;54.600;9.842;2023-07-20T04:08:32;13.80;99.90
45849;DHT22;31567;54.600;9.842;2023-07-20T04:12:11;13.80;99.90
45849;DHT22;31567;54.600;9.842;2023-07-20T04:15:51;13.90;99.90
45849;DHT22;31567;54.600;9.842;2023-07-20T04:19:30;14.00;99.90
45849;DHT22;31567;54.600;9.842;2023-07-20T04:23:10;14.10;99.90
45849;DHT22;31567;54.600;9.842;2023-07-20T04:26:49;14.10;99.90
45849;DHT22;31567;54.600;9.842;2023-07-20T04:30:29;14.30;99.90
45849;DHT22;31567;54.600;9.842;2023-07-20T04:34:08;14.30;99.90
45849;DHT22;31567;54.600;9.842;2023-07-20T04:37:48;14.40;99.90
45849;DHT22;31567;54.600;9.842;2023-07-20T04:41:27;14.50;99.90
45849;DHT22;31567;54.600;9.842;2023-07-20T04:45:07;14.60;99.90
45849;DHT22;31567;54.600;9.842;2023-07-20T04:48:47;14.60;99.90
45849;DHT22;31567;54.600;9.842;2023-07-20T04:52:27;14.60;99.90
45849;DHT22;31567;54.600;9.842;2023-07-20T04:56:06;14.70;99.90
45849;DHT22;31567;54.600;9.842;2023-07-20T04:59:47;14.80;99.90
45849;DHT22;31567;54.600;9.842;2023-07-20T05:03:26;14.80;99.90
45849;DHT22;31567;54.600;9.842;2023-07-20T05:07:06;14.80;99.90
45849;DHT22;31567;54.600;9.842;2023-07-20T05:10:46;14.90;99.90
45849;DHT22;31567;54.600;9.842;2023-07-20T05:14:25;15.10;99.90
45849;DHT22;31567;54.600;9.842;2023-07-20T05:18:05;15.10;99.90
45849;DHT22;31567;54.600;9.842;2023-07-20T05:21:44;15.10;99.90
45849;DHT22;31567;54.600;9.842;2023-07-20T05:25:24;15.20;99.90
45849;DHT22;31567;54.600;9.842;2023-07-20T05:29:04;15.30;99.90
45849;DHT22;31567;54.600;9.842;2023-07-20T05:32:43;15.30;99.90
45849;DHT22;31567;54.600;9.842;2023-07-20T05:36:24;15.40;99.90
45849;DHT22;31567;54.600;9.842;2023-07-20T05:40:05;15.40;99.90
45849;DHT22;31567;54.600;9.842;2023-07-20T05:43:45;15.60;99.90
45849;DHT22;31567;54.600;9.842;2023-07-20T05:47:25;15.70;99.90
45849;DHT22;31567;54.600;9.842;2023-07-20T05:51:04;15.90;99.90
45849;DHT22;31567;54.600;9.842;2023-07-20T05:54:44;16.00;99.90
45849;DHT22;31567;54.600;9.842;2023-07-20T05:58:24;16.00;99.50
45849;DHT22;31567;54.600;9.842;2023-07-20T06:02:03;16.00;99.50
45849;DHT22;31567;54.600;9.842;2023-07-20T06:05:43;16.10;99.60
45849;DHT22;31567;54.600;9.842;2023-07-20T06:09:23;16.20;99.60
45849;DHT22;31567;54.600;9.842;2023-07-20T06:13:03;16.30;99.40
45849;DHT22;31567;54.600;9.842;2023-07-20T06:16:42;16.30;99.20
45849;DHT22;31567;54.600;9.842;2023-07-20T06:20:22;16.30;99.00
45849;DHT22;31567;54.600;9.842;2023-07-20T06:24:02;16.50;98.80
45849;DHT22;31567;54.600;9.842;2023-07-20T06:27:42;16.60;98.50
45849;DHT22;31567;54.600;9.842;2023-07-20T06:31:22;16.80;98.10
45849;DHT22;31567;54.600;9.842;2023-07-20T06:35:02;16.80;97.60
45849;DHT22;31567;54.600;9.842;2023-07-20T06:38:41;17.00;97.60
45849;DHT22;31567;54.600;9.842;2023-07-20T06:42:21;17.20;97.30
45849;DHT22;31567;54.600;9.842;2023-07-20T06:46:00;17.30;96.60
45849;DHT22;31567;54.600;9.842;2023-07-20T06:49:40;17.30;96.30
45849;DHT22;31567;54.600;9.842;2023-07-20T06:53:20;17.30;96.50
45849;DHT22;31567;54.600;9.842;2023-07-20T06:56:59;17.30;96.60
45849;DHT22;31567;54.600;9.842;2023-07-20T07:00:39;17.30;96.50
45849;DHT22;31567;54.600;9.842;2023-07-20T07:04:19;17.30;96.50
45849;DHT22;31567;54.600;9.842;2023-07-20T07:07:58;17.30;96.70
45849;DHT22;31567;54.600;9.842;2023-07-20T07:11:38;17.20;96.30
45849;DHT22;31567;54.600;9.842;2023-07-20T07:15:17;17.30;96.60
45849;DHT22;31567;54.600;9.842;2023-07-20T07:18:57;17.20;96.60
45849;DHT22;31567;54.600;9.842;2023-07-20T07:22:36;17.20;96.30
45849;DHT22;31567;54.600;9.842;2023-07-20T07:26:16;17.20;96.40
45849;DHT22;31567;54.600;9.842;2023-07-20T07:29:55;17.20;96.60
45849;DHT22;31567;54.600;9.842;2023-07-20T07:33:35;17.20;96.20
45849;DHT22;31567;54.600;9.842;2023-07-20T07:37:14;17.30;96.00
45849;DHT22;31567;54.600;9.842;2023-07-20T07:40:54;17.30;95.90
45849;DHT22;31567;54.600;9.842;2023-07-20T07:44:34;17.40;96.20
45849;DHT22;31567;54.600;9.842;2023-07-20T07:48:13;17.80;95.60
45849;DHT22;31567;54.600;9.842;2023-07-20T07:51:53;17.70;95.10
45849;DHT22;31567;54.600;9.842;2023-07-20T07:55:33;17.50;95.90
45849;DHT22;31567;54.600;9.842;2023-07-20T07:59:12;17.30;96.30
45849;DHT22;31567;54.600;9.842;2023-07-20T08:02:52;17.30;97.00
45849;DHT22;31567;54.600;9.842;2023-07-20T08:06:31;17.30;97.70
45849;DHT22;31567;54.600;9.842;2023-07-20T08:10:11;17.40;97.80
45849;DHT22;31567;54.600;9.842;2023-07-20T08:13:51;17.40;98.00
45849;DHT22;31567;54.600;9.842;2023-07-20T08:17:30;17.70;98.40
45849;DHT22;31567;54.600;9.842;2023-07-20T08:21:10;17.90;98.40
45849;DHT22;31567;54.600;9.842;2023-07-20T08:24:49;18.00;97.50
45849;DHT22;31567;54.600;9.842;2023-07-20T08:28:29;18.10;96.60
45849;DHT22;31567;54.600;9.842;2023-07-20T08:32:08;18.10;96.10
45849;DHT22;31567;54.600;9.842;2023-07-20T08:35:48;18.20;96.00
45849;DHT22;31567;54.600;9.842;2023-07-20T08:39:28;18.20;95.20
45849;DHT22;31567;54.600;9.842;2023-07-20T08:43:08;18.30;95.00
45849;DHT22;31567;54.600;9.842;2023-07-20T08:46:49;18.50;94.70
45849;DHT22;31567;54.600;9.842;2023-07-20T08:50:30;18.70;94.20
45849;DHT22;31567;54.600;9.842;2023-07-20T08:54:12;19.00;94.20
45849;DHT22;31567;54.600;9.842;2023-07-20T08:57:57;19.00;93.80
45849;DHT22;31567;54.600;9.842;2023-07-20T09:01:39;19.00;93.00
45849;DHT22;31567;54.600;9.842;2023-07-20T09:05:19;19.00;92.20
45849;DHT22;31567;54.600;9.842;2023-07-20T09:08:59;19.00;91.90
45849;DHT22;31567;54.600;9.842;2023-07-20T09:12:43;18.90;92.30
45849;DHT22;31567;54.600;9.842;2023-07-20T09:16:23;18.90;93.20
45849;DHT22;31567;54.600;9.842;2023-07-20T09:20:03;18.60;93.90
45849;DHT22;31567;54.600;9.842;2023-07-20T09:23:49;18.60;94.60
45849;DHT22;31567;54.600;9.842;2023-07-20T09:27:37;18.90;94.60
45849;DHT22;31567;54.600;9.842;2023-07-20T09:31:18;19.00;93.90
45849;DHT22;31567;54.600;9.842;2023-07-20T09:34:58;19.10;93.30
45849;DHT22;31567;54.600;9.842;2023-07-20T09:38:38;19.20;93.30
45849;DHT22;31567;54.600;9.842;2023-07-20T09:42:18;18.90;93.60
45849;DHT22;31567;54.600;9.842;2023-07-20T09:45:58;18.90;94.10
45849;DHT22;31567;54.600;9.842;2023-07-20T09:49:41;19.00;93.90
45849;DHT22;31567;54.600;9.842;2023-07-20T09:53:21;19.20;93.50
45849;DHT22;31567;54.600;9.842;2023-07-20T09:57:04;19.40;93.40
45849;DHT22;31567;54.600;9.842;2023-07-20T10:00:46;19.60;93.10
45849;DHT22;31567;54.600;9.842;2023-07-20T10:04:30;19.80;92.90
45849;DHT22;31567;54.600;9.842;2023-07-20T10:08:12;19.70;92.20
45849;DHT22;31567;54.600;9.842;2023-07-20T10:11:53;19.70;91.90
45849;DHT22;31567;54.600;9.842;2023-07-20T10:15:36;19.70;92.10
45849;DHT22;31567;54.600;9.842;2023-07-20T10:19:23;19.60;91.90
45849;DHT22;31567;54.600;9.842;2023-07-20T10:23:05;19.40;92.30
45849;DHT22;31567;54.600;9.842;2023-07-20T10:26:46;19.00;93.40
45849;DHT22;31567;54.600;9.842;2023-07-20T10:30:26;18.80;94.10
45849;DHT22;31567;54.600;9.842;2023-07-20T10:34:06;18.80;95.20
45849;DHT22;31567;54.600;9.842;2023-07-20T10:37:54;19.00;95.40
45849;DHT22;31567;54.600;9.842;2023-07-20T10:41:35;19.20;95.70
45849;DHT22;31567;54.600;9.842;2023-07-20T10:45:16;19.50;94.20
45849;DHT22;31567;54.600;9.842;2023-07-20T10:49:00;19.60;92.20
45849;DHT22;31567;54.600;9.842;2023-07-20T10:52:41;19.80;91.90
45849;DHT22;31567;54.600;9.842;2023-07-20T10:56:22;20.00;91.50
45849;DHT22;31567;54.600;9.842;2023-07-20T11:00:13;20.20;90.80
45849;DHT22;31567;54.600;9.842;2023-07-20T11:03:57;20.40;90.90
45849;DHT22;31567;54.600;9.842;2023-07-20T11:07:38;20.30;86.40
45849;DHT22;31567;54.600;9.842;2023-07-20T11:11:28;20.10;86.00
45849;DHT22;31567;54.600;9.842;2023-07-20T11:15:08;19.80;85.00
45849;DHT22;31567;54.600;9.842;2023-07-20T11:18:48;19.80;84.70
45849;DHT22;31567;54.600;9.842;2023-07-20T11:22:27;19.80;84.20
45849;DHT22;31567;54.600;9.842;2023-07-20T11:26:07;19.90;84.60
45849;DHT22;31567;54.600;9.842;2023-07-20T11:29:47;20.00;84.80
45849;DHT22;31567;54.600;9.842;2023-07-20T11:33:27;20.10;84.70
45849;DHT22;31567;54.600;9.842;2023-07-20T11:37:06;20.20;85.50
45849;DHT22;31567;54.600;9.842;2023-07-20T11:40:46;20.50;86.80
45849;DHT22;31567;54.600;9.842;2023-07-20T11:44:27;20.90;86.00
45849;DHT22;31567;54.600;9.842;2023-07-20T11:48:06;20.90;83.50
45849;DHT22;31567;54.600;9.842;2023-07-20T11:51:46;20.60;82.90
45849;DHT22;31567;54.600;9.842;2023-07-20T11:55:26;20.60;82.90
45849;DHT22;31567;54.600;9.842;2023-07-20T11:59:06;20.80;83.60
45849;DHT22;31567;54.600;9.842;2023-07-20T12:02:46;21.00;83.60
45849;DHT22;31567;54.600;9.842;2023-07-20T12:06:27;20.90;82.60
45849;DHT22;31567;54.600;9.842;2023-07-20T12:10:09;20.70;82.90
45849;DHT22;31567;54.600;9.842;2023-07-20T12:13:49;20.30;84.90
45849;DHT22;31567;54.600;9.842;2023-07-20T12:17:29;19.90;89.10
45849;DHT22;31567;54.600;9.842;2023-07-20T12:21:09;20.00;90.40
45849;DHT22;31567;54.600;9.842;2023-07-20T12:24:52;20.00;90.10
45849;DHT22;31567;54.600;9.842;2023-07-20T12:28:32;20.10;89.80
45849;DHT22;31567;54.600;9.842;2023-07-20T12:32:12;20.20;88.30
45849;DHT22;31567;54.600;9.842;2023-07-20T12:35:51;20.30;86.90
45849;DHT22;31567;54.600;9.842;2023-07-20T12:39:35;20.40;86.70
45849;DHT22;31567;54.600;9.842;2023-07-20T12:43:14;20.80;86.70
45849;DHT22;31567;54.600;9.842;2023-07-20T12:46:54;20.80;85.10
45849;DHT22;31567;54.600;9.842;2023-07-20T12:50:33;20.60;85.30
45849;DHT22;31567;54.600;9.842;2023-07-20T12:54:13;20.30;85.40
45849;DHT22;31567;54.600;9.842;2023-07-20T12:57:53;20.20;85.40
45849;DHT22;31567;54.600;9.842;2023-07-20T13:01:32;20.00;86.90
45849;DHT22;31567;54.600;9.842;2023-07-20T13:05:12;20.00;87.10
45849;DHT22;31567;54.600;9.842;2023-07-20T13:08:51;20.30;86.80
45849;DHT22;31567;54.600;9.842;2023-07-20T13:12:35;20.70;85.70
45849;DHT22;31567;54.600;9.842;2023-07-20T13:16:16;20.60;82.70
45849;DHT22;31567;54.600;9.842;2023-07-20T13:19:56;20.40;84.00
45849;DHT22;31567;54.600;9.842;2023-07-20T13:23:36;20.40;85.40
45849;DHT22;31567;54.600;9.842;2023-07-20T13:27:16;20.40;85.90
45849;DHT22;31567;54.600;9.842;2023-07-20T13:30:57;20.30;85.40
45849;DHT22;31567;54.600;9.842;2023-07-20T13:34:36;20.40;85.80
45849;DHT22;31567;54.600;9.842;2023-07-20T13:38:16;20.50;86.80
45849;DHT22;31567;54.600;9.842;2023-07-20T13:41:56;20.80;85.50
45849;DHT22;31567;54.600;9.842;2023-07-20T13:45:35;20.90;84.50
45849;DHT22;31567;54.600;9.842;2023-07-20T13:49:15;20.80;84.60
45849;DHT22;31567;54.600;9.842;2023-07-20T13:52:55;20.80;85.70
45849;DHT22;31567;54.600;9.842;2023-07-20T13:56:35;20.90;84.70
45849;DHT22;31567;54.600;9.842;2023-07-20T14:00:15;21.00;84.20
45849;DHT22;31567;54.600;9.842;2023-07-20T14:03:55;21.00;84.40
45849;DHT22;31567;54.600;9.842;2023-07-20T14:07:35;21.10;84.60
45849;DHT22;31567;54.600;9.842;2023-07-20T14:11:16;20.90;84.20
45849;DHT22;31567;54.600;9.842;2023-07-20T14:14:55;20.70;85.80
45849;DHT22;31567;54.600;9.842;2023-07-20T14:18:35;20.30;87.60
45849;DHT22;31567;54.600;9.842;2023-07-20T14:22:15;20.00;89.90
45849;DHT22;31567;54.600;9.842;2023-07-20T14:25:55;19.80;90.40
45849;DHT22;31567;54.600;9.842;2023-07-20T14:29:34;19.70;91.10
45849;DHT22;31567;54.600;9.842;2023-07-20T14:33:15;19.70;90.80
45849;DHT22;31567;54.600;9.842;2023-07-20T14:36:55;19.70;90.20
45849;DHT22;31567;54.600;9.842;2023-07-20T14:40:34;19.80;90.50
45849;DHT22;31567;54.600;9.842;2023-07-20T14:44:14;20.00;90.40
45849;DHT22;31567;54.600;9.842;2023-07-20T14:47:54;20.10;90.30
45849;DHT22;31567;54.600;9.842;2023-07-20T14:51:33;20.00;90.40
45849;DHT22;31567;54.600;9.842;2023-07-20T14:55:15;19.80;90.00
45849;DHT22;31567;54.600;9.842;2023-07-20T14:58:55;19.60;90.40
45849;DHT22;31567;54.600;9.842;2023-07-20T15:02:35;19.50;90.90
45849;DHT22;31567;54.600;9.842;2023-07-20T15:06:15;19.80;91.00
45849;DHT22;31567;54.600;9.842;2023-07-20T15:09:54;19.70;90.40
45849;DHT22;31567;54.600;9.842;2023-07-20T15:13:34;19.80;90.40
45849;DHT22;31567;54.600;9.842;2023-07-20T15:17:13;19.80;88.50
45849;DHT22;31567;54.600;9.842;2023-07-20T15:20:53;19.70;86.80
45849;DHT22;31567;54.600;9.842;2023-07-20T15:24:35;19.70;86.80
45849;DHT22;31567;54.600;9.842;2023-07-20T15:28:15;20.00;87.20
45849;DHT22;31567;54.600;9.842;2023-07-20T15:31:55;20.20;86.30
45849;DHT22;31567;54.600;9.842;2023-07-20T15:35:34;20.50;87.10
45849;DHT22;31567;54.600;9.842;2023-07-20T15:39:14;20.70;85.10
45849;DHT22;31567;54.600;9.842;2023-07-20T15:42:53;20.60;85.00
45849;DHT22;31567;54.600;9.842;2023-07-20T15:50:19;20.40;86.40
45849;DHT22;31567;54.600;9.842;2023-07-20T15:53:58;20.30;87.20
45849;DHT22;31567;54.600;9.842;2023-07-20T15:57:38;20.40;87.40
45849;DHT22;31567;54.600;9.842;2023-07-20T16:01:17;20.30;87.50
45849;DHT22;31567;54.600;9.842;2023-07-20T16:04:57;20.40;87.00
45849;DHT22;31567;54.600;9.842;2023-07-20T16:08:36;20.40;86.90
45849;DHT22;31567;54.600;9.842;2023-07-20T16:12:16;20.20;86.40
45849;DHT22;31567;54.600;9.842;2023-07-20T16:15:55;20.20;87.10
45849;DHT22;31567;54.600;9.842;2023-07-20T16:19:35;20.30;86.50
45849;DHT22;31567;54.600;9.842;2023-07-20T16:23:15;20.60;86.20
45849;DHT22;31567;54.600;9.842;2023-07-20T16:26:54;20.80;84.60
45849;DHT22;31567;54.600;9.842;2023-07-20T16:30:34;20.90;84.20
45849;DHT22;31567;54.600;9.842;2023-07-20T16:34:14;21.10;84.20
45849;DHT22;31567;54.600;9.842;2023-07-20T16:37:55;21.20;83.70
45849;DHT22;31567;54.600;9.842;2023-07-20T16:41:35;21.30;82.70
45849;DHT22;31567;54.600;9.842;2023-07-20T16:45:14;21.40;82.60
45849;DHT22;31567;54.600;9.842;2023-07-20T16:48:54;21.50;82.30
45849;DHT22;31567;54.600;9.842;2023-07-20T16:52:34;21.50;82.50
45849;DHT22;31567;54.600;9.842;2023-07-20T16:56:13;21.30;82.20
45849;DHT22;31567;54.600;9.842;2023-07-20T16:59:53;21.20;83.40
45849;DHT22;31567;54.600;9.842;2023-07-20T17:03:33;21.30;84.10
45849;DHT22;31567;54.600;9.842;2023-07-20T17:07:14;21.50;83.20
45849;DHT22;31567;54.600;9.842;2023-07-20T17:10:53;21.30;83.10
45849;DHT22;31567;54.600;9.842;2023-07-20T17:14:34;21.40;83.40
45849;DHT22;31567;54.600;9.842;2023-07-20T17:18:14;21.60;82.30
45849;DHT22;31567;54.600;9.842;2023-07-20T17:21:53;21.70;80.50
45849;DHT22;31567;54.600;9.842;2023-07-20T17:25:33;21.40;80.20
45849;DHT22;31567;54.600;9.842;2023-07-20T17:29:12;21.50;80.30
45849;DHT22;31567;54.600;9.842;2023-07-20T17:32:52;21.70;79.80
45849;DHT22;31567;54.600;9.842;2023-07-20T17:36:32;21.70;79.90
45849;DHT22;31567;54.600;9.842;2023-07-20T17:40:11;21.80;79.40
45849;DHT22;31567;54.600;9.842;2023-07-20T17:43:51;21.80;78.00
45849;DHT22;31567;54.600;9.842;2023-07-20T17:47:31;21.90;78.20
45849;DHT22;31567;54.600;9.842;2023-07-20T17:51:11;21.60;77.90
45849;DHT22;31567;54.600;9.842;2023-07-20T17:54:51;21.40;78.40
45849;DHT22;31567;54.600;9.842;2023-07-20T17:58:30;21.50;78.40
45849;DHT22;31567;54.600;9.842;2023-07-20T18:02:10;21.70;77.90
45849;DHT22;31567;54.600;9.842;2023-07-20T18:05:49;21.90;77.80
45849;DHT22;31567;54.600;9.842;2023-07-20T18:09:30;22.20;77.80
45849;DHT22;31567;54.600;9.842;2023-07-20T18:13:09;22.40;77.40
45849;DHT22;31567;54.600;9.842;2023-07-20T18:16:49;22.50;77.20
45849;DHT22;31567;54.600;9.842;2023-07-20T18:20:28;22.60;77.20
45849;DHT22;31567;54.600;9.842;2023-07-20T18:24:08;22.80;77.20
45849;DHT22;31567;54.600;9.842;2023-07-20T18:27:47;22.70;76.20
45849;DHT22;31567;54.600;9.842;2023-07-20T18:31:27;22.80;76.10
45849;DHT22;31567;54.600;9.842;2023-07-20T18:35:07;22.80;76.10
45849;DHT22;31567;54.600;9.842;2023-07-20T18:38:47;22.70;76.10
45849;DHT22;31567;54.600;9.842;2023-07-20T18:42:27;22.20;77.20
45849;DHT22;31567;54.600;9.842;2023-07-20T18:46:07;21.80;78.60
45849;DHT22;31567;54.600;9.842;2023-07-20T18:49:46;21.50;80.00
45849;DHT22;31567;54.600;9.842;2023-07-20T18:53:26;21.50;80.50
45849;DHT22;31567;54.600;9.842;2023-07-20T18:57:05;21.30;80.80
45849;DHT22;31567;54.600;9.842;2023-07-20T19:00:47;21.10;81.40
45849;DHT22;31567;54.600;9.842;2023-07-20T19:04:27;20.70;82.30
45849;DHT22;31567;54.600;9.842;2023-07-20T19:08:06;20.40;83.10
45849;DHT22;31567;54.600;9.842;2023-07-20T19:11:46;20.20;83.50
45849;DHT22;31567;54.600;9.842;2023-07-20T19:15:25;19.90;84.20
45849;DHT22;31567;54.600;9.842;2023-07-20T19:19:05;19.70;84.60
45849;DHT22;31567;54.600;9.842;2023-07-20T19:22:44;19.60;85.30
45849;DHT22;31567;54.600;9.842;2023-07-20T19:26:24;19.40;85.70
45849;DHT22;31567;54.600;9.842;2023-07-20T19:30:05;19.30;86.20
45849;DHT22;31567;54.600;9.842;2023-07-20T19:33:45;19.10;86.70
45849;DHT22;31567;54.600;9.842;2023-07-20T19:37:24;19.00;87.10
45849;DHT22;31567;54.600;9.842;2023-07-20T19:41:04;18.90;87.60
45849;DHT22;31567;54.600;9.842;2023-07-20T19:44:44;18.90;88.00
45849;DHT22;31567;54.600;9.842;2023-07-20T19:48:24;18.70;88.40
45849;DHT22;31567;54.600;9.842;2023-07-20T19:52:04;18.60;88.80
45849;DHT22;31567;54.600;9.842;2023-07-20T19:55:44;18.50;89.20
45849;DHT22;31567;54.600;9.842;2023-07-20T19:59:23;18.40;89.60
45849;DHT22;31567;54.600;9.842;2023-07-20T20:03:03;18.20;90.00
45849;DHT22;31567;54.600;9.842;2023-07-20T20:06:42;18.10;90.10
45849;DHT22;31567;54.600;9.842;2023-07-20T20:10:22;18.00;90.30
45849;DHT22;31567;54.600;9.842;2023-07-20T20:14:04;17.90;90.50
45849;DHT22;31567;54.600;9.842;2023-07-20T20:17:43;17.80;90.70
45849;DHT22;31567;54.600;9.842;2023-07-20T20:21:23;17.80;90.80
45849;DHT22;31567;54.600;9.842;2023-07-20T20:25:03;17.70;91.00
45849;DHT22;31567;54.600;9.842;2023-07-20T20:28:42;17.50;91.20
45849;DHT22;31567;54.600;9.842;2023-07-20T20:32:22;17.50;91.40
45849;DHT22;31567;54.600;9.842;2023-07-20T20:36:02;17.40;91.60
45849;DHT22;31567;54.600;9.842;2023-07-20T20:39:42;17.30;91.80
45849;DHT22;31567;54.600;9.842;2023-07-20T20:43:21;17.20;91.90
45849;DHT22;31567;54.600;9.842;2023-07-20T20:47:01;17.20;92.10
45849;DHT22;31567;54.600;9.842;2023-07-20T20:50:43;17.10;92.20
45849;DHT22;31567;54.600;9.842;2023-07-20T20:54:22;17.00;92.30
45849;DHT22;31567;54.600;9.842;2023-07-20T20:58:02;17.00;92.40
45849;DHT22;31567;54.600;9.842;2023-07-20T21:01:42;16.90;92.50
45849;DHT22;31567;54.600;9.842;2023-07-20T21:05:24;16.90;92.60
45849;DHT22;31567;54.600;9.842;2023-07-20T21:09:04;16.90;92.80
45849;DHT22;31567;54.600;9.842;2023-07-20T21:12:44;16.80;92.90
45849;DHT22;31567;54.600;9.842;2023-07-20T21:16:23;16.80;93.00
45849;DHT22;31567;54.600;9.842;2023-07-20T21:20:06;16.70;93.10
45849;DHT22;31567;54.600;9.842;2023-07-20T21:23:46;16.70;93.20
45849;DHT22;31567;54.600;9.842;2023-07-20T21:27:25;16.60;93.30
45849;DHT22;31567;54.600;9.842;2023-07-20T21:31:06;16.50;93.30
45849;DHT22;31567;54.600;9.842;2023-07-20T21:34:46;16.50;93.40
45849;DHT22;31567;54.600;9.842;2023-07-20T21:38:26;16.50;93.60
45849;DHT22;31567;54.600;9.842;2023-07-20T21:42:06;16.40;93.80
45849;DHT22;31567;54.600;9.842;2023-07-20T21:45:45;16.30;94.00
45849;DHT22;31567;54.600;9.842;2023-07-20T21:49:25;16.30;94.10
45849;DHT22;31567;54.600;9.842;2023-07-20T21:53:05;16.30;94.20
45849;DHT22;31567;54.600;9.842;2023-07-20T21:56:45;16.20;94.30
45849;DHT22;31567;54.600;9.842;2023-07-20T22:00:24;16.20;94.40
45849;DHT22;31567;54.600;9.842;2023-07-20T22:04:04;16.10;94.40
45849;DHT22;31567;54.600;9.842;2023-07-20T22:07:44;16.10;94.50
45849;DHT22;31567;54.600;9.842;2023-07-20T22:11:23;16.00;94.70
45849;DHT22;31567;54.600;9.842;2023-07-20T22:15:04;15.90;94.70
45849;DHT22;31567;54.600;9.842;2023-07-20T22:18:44;15.90;94.90
45849;DHT22;31567;54.600;9.842;2023-07-20T22:22:25;15.90;94.90
45849;DHT22;31567;54.600;9.842;2023-07-20T22:26:05;15.90;95.00
45849;DHT22;31567;54.600;9.842;2023-07-20T22:29:44;15.90;95.10
45849;DHT22;31567;54.600;9.842;2023-07-20T22:33:24;15.80;95.10
45849;DHT22;31567;54.600;9.842;2023-07-20T22:37:05;15.80;95.20
45849;DHT22;31567;54.600;9.842;2023-07-20T22:40:45;15.80;95.30
45849;DHT22;31567;54.600;9.842;2023-07-20T22:44:24;15.70;95.50
45849;DHT22;31567;54.600;9.842;2023-07-20T22:48:04;15.80;95.70
45849;DHT22;31567;54.600;9.842;2023-07-20T22:51:43;15.80;95.90
45849;DHT22;31567;54.600;9.842;2023-07-20T22:55:23;15.70;96.10
45849;DHT22;31567;54.600;9.842;2023-07-20T22:59:03;15.70;96.30
45849;DHT22;31567;54.600;9.842;2023-07-20T23:02:44;15.70;96.50
45849;DHT22;31567;54.600;9.842;2023-07-20T23:06:23;15.60;96.70
45849;DHT22;31567;54.600;9.842;2023-07-20T23:10:03;15.70;96.80
45849;DHT22;31567;54.600;9.842;2023-07-20T23:13:43;15.70;97.00
45849;DHT22;31567;54.600;9.842;2023-07-20T23:17:23;15.70;97.20
45849;DHT22;31567;54.600;9.842;2023-07-20T23:21:03;15.70;97.40
45849;DHT22;31567;54.600;9.842;2023-07-20T23:24:43;15.70;97.70
45849;DHT22;31567;54.600;9.842;2023-07-20T23:28:23;15.60;97.80